Time;durP1;ratioP1;P1;durP2;ratioP2;P2;SDS_P1;SDS_P2;PMS_P1;PMS_P2;Temp;Humidity;BMP_temperature;BMP_pressure;BME280_temperature;BME280_humidity;BME280_pressure;Samples;Min_cycle;Max_cycle;Signal;HPM_P1;HPM_P2
2024/04/05 00:05:01;;;;;;;24.13;6.28;;;10.70;99.90;;;;;;12620261;28;20504;-35
2024/04/05 00:11:02;;;;;;;19.05;6.43;;;10.60;99.90;;;;;;12603826;28;20079;-35
2024/04/05 00:17:03;;;;;;;23.02;6.28;;;10.50;99.90;;;;;;12602572;28;20079;-35
2024/04/05 00:23:04;;;;;;;22.50;6.97;;;10.50;99.90;;;;;;12615340;28;20064;-35
2024/04/05 00:29:05;;;;;;;18.67;6.07;;;10.50;99.90;;;;;;12599207;28;20480;-35
2024/04/05 00:35:06;;;;;;;15.93;5.32;;;10.50;99.90;;;;;;12601110;28;20097;-36
2024/04/05 00:41:07;;;;;;;21.02;6.15;;;10.50;99.90;;;;;;12613884;28;20051;-35
2024/04/05 00:47:08;;;;;;;20.50;6.45;;;10.40;99.90;;;;;;12595590;28;20412;-35
2024/04/05 00:53:24;;;;;;;17.35;5.78;;;10.40;99.90;;;;;;12604009;28;20048;-35
2024/04/05 00:59:26;;;;;;;21.00;5.93;;;10.40;99.90;;;;;;12627581;28;20097;-36
2024/04/05 01:05:27;;;;;;;18.83;5.65;;;10.30;99.90;;;;;;12618276;28;20054;-35
2024/04/05 01:11:28;;;;;;;21.73;6.00;;;10.30;99.90;;;;;;12600881;28;20117;-35
2024/04/05 01:17:29;;;;;;;17.10;5.43;;;10.30;99.90;;;;;;12593892;28;20187;-35
2024/04/05 01:23:33;;;;;;;20.42;6.00;;;10.30;99.90;;;;;;12611957;28;20080;-35
2024/04/05 01:29:34;;;;;;;18.00;5.75;;;10.30;99.90;;;;;;12598335;28;20081;-35
2024/04/05 01:35:35;;;;;;;18.88;5.22;;;10.30;99.90;;;;;;12605792;28;20562;-35
2024/04/05 01:41:36;;;;;;;20.55;6.00;;;10.30;99.90;;;;;;12605021;28;20135;-35
2024/04/05 01:47:37;;;;;;;20.90;5.38;;;10.30;99.90;;;;;;12603885;28;20056;-35
2024/04/05 01:53:38;;;;;;;20.35;5.60;;;10.40;99.90;;;;;;12610095;28;20063;-35
2024/04/05 01:59:38;;;;;;;21.05;6.47;;;10.40;99.90;;;;;;12619636;28;20044;-35
2024/04/05 02:05:39;;;;;;;22.52;5.95;;;10.40;99.90;;;;;;12629873;28;20117;-35
2024/04/05 02:11:40;;;;;;;23.15;5.85;;;10.40;99.90;;;;;;12619377;28;20052;-35
2024/04/05 02:17:41;;;;;;;17.90;5.47;;;10.30;99.90;;;;;;12612144;28;20064;-36
2024/04/05 02:23:42;;;;;;;16.50;5.82;;;10.30;99.90;;;;;;12613736;28;20126;-35
2024/04/05 02:29:43;;;;;;;16.88;6.07;;;10.40;99.90;;;;;;12621861;28;20118;-35
2024/04/05 02:35:44;;;;;;;18.30;6.13;;;10.30;99.90;;;;;;12616777;28;20048;-35
2024/04/05 02:41:46;;;;;;;20.45;5.78;;;10.40;99.90;;;;;;12621038;28;20048;-35
2024/04/05 02:47:47;;;;;;;16.88;5.22;;;10.40;99.90;;;;;;12605484;28;20059;-35
2024/04/05 02:53:48;;;;;;;20.92;5.22;;;10.50;99.90;;;;;;12615941;28;20083;-35
2024/04/05 02:59:48;;;;;;;13.15;5.68;;;10.60;99.90;;;;;;12613557;28;20408;-35
2024/04/05 03:05:50;;;;;;;21.23;5.53;;;10.60;99.90;;;;;;12625097;28;20044;-35
2024/04/05 03:11:50;;;;;;;19.10;5.72;;;10.70;99.90;;;;;;12610865;28;20055;-36
2024/04/05 03:17:52;;;;;;;15.25;5.90;;;10.70;99.90;;;;;;12611180;28;20098;-35
2024/04/05 03:23:53;;;;;;;17.25;5.47;;;10.70;99.90;;;;;;12606391;28;20049;-36
2024/04/05 03:29:53;;;;;;;17.65;5.38;;;10.80;99.90;;;;;;12593030;28;20135;-35
2024/04/05 03:35:54;;;;;;;16.83;5.45;;;10.80;99.90;;;;;;12607474;28;20076;-35
2024/04/05 03:41:55;;;;;;;12.20;5.63;;;10.90;99.90;;;;;;12615572;28;20040;-35
2024/04/05 03:47:56;;;;;;;17.30;6.07;;;10.90;99.90;;;;;;12619401;28;20050;-36
2024/04/05 03:53:57;;;;;;;16.67;6.45;;;10.90;99.90;;;;;;12617789;28;20182;-36
2024/04/05 03:59:59;;;;;;;15.32;5.75;;;10.80;99.90;;;;;;12589207;28;20036;-35
2024/04/05 04:06:00;;;;;;;17.83;5.50;;;10.80;99.90;;;;;;12604566;28;20049;-36
2024/04/05 04:12:01;;;;;;;13.60;6.10;;;10.70;99.90;;;;;;12610638;28;20052;-36
2024/04/05 04:18:02;;;;;;;16.10;6.50;;;10.70;99.90;;;;;;12593669;28;20696;-35
2024/04/05 04:24:03;;;;;;;11.95;5.43;;;10.60;99.90;;;;;;12617833;28;20056;-35
2024/04/05 04:30:08;;;;;;;12.88;5.60;;;10.70;99.90;;;;;;12615269;28;20052;-35
2024/04/05 04:36:09;;;;;;;22.45;6.50;;;10.70;99.90;;;;;;12612684;28;20052;-36
2024/04/05 04:42:10;;;;;;;17.33;5.78;;;10.70;99.90;;;;;;12601508;28;20056;-35
2024/04/05 04:48:10;;;;;;;14.30;5.75;;;10.80;99.90;;;;;;12605781;28;20055;-35
2024/04/05 04:54:11;;;;;;;11.48;6.00;;;10.80;99.90;;;;;;12612881;28;20052;-35
2024/04/05 05:00:14;;;;;;;12.73;5.80;;;10.90;99.90;;;;;;12595179;28;20149;-36
2024/04/05 05:06:15;;;;;;;16.95;6.55;;;11.00;99.90;;;;;;12615115;28;20056;-36
2024/04/05 05:12:16;;;;;;;14.40;6.40;;;11.00;99.90;;;;;;12614120;28;20408;-35
2024/04/05 05:18:16;;;;;;;13.32;5.93;;;11.00;99.90;;;;;;12616316;28;20044;-36
2024/04/05 05:24:17;;;;;;;13.32;6.18;;;11.20;99.90;;;;;;12608388;28;20073;-36
2024/04/05 05:30:18;;;;;;;14.63;6.70;;;11.30;99.90;;;;;;12584500;28;20483;-36
2024/04/05 05:36:19;;;;;;;18.60;6.45;;;11.40;99.90;;;;;;12603742;28;20048;-36
2024/04/05 05:42:20;;;;;;;11.98;6.13;;;11.30;99.90;;;;;;12607850;28;20045;-36
2024/04/05 05:48:21;;;;;;;15.88;6.75;;;11.40;99.90;;;;;;12604459;28;20056;-36
2024/04/05 05:54:22;;;;;;;14.82;6.18;;;11.50;99.90;;;;;;12602261;28;20561;-36
2024/04/05 06:00:23;;;;;;;14.85;7.15;;;11.50;99.90;;;;;;12595585;28;20052;-36
2024/04/05 06:06:25;;;;;;;13.38;7.53;;;11.50;99.90;;;;;;12604200;28;20056;-36
2024/04/05 06:12:27;;;;;;;16.00;8.60;;;11.60;99.90;;;;;;12577201;28;20060;-36
2024/04/05 06:18:29;;;;;;;16.33;10.82;;;11.70;99.90;;;;;;12598190;28;20416;-36
2024/04/05 06:24:30;;;;;;;14.02;10.10;;;11.80;99.90;;;;;;12577133;28;20055;-36
2024/04/05 06:30:30;;;;;;;12.95;9.05;;;11.80;99.90;;;;;;12601294;28;20056;-36
2024/04/05 06:36:31;;;;;;;18.80;10.52;;;11.90;99.90;;;;;;12604034;28;20048;-35
2024/04/05 06:42:32;;;;;;;17.80;9.38;;;11.90;99.90;;;;;;12616763;28;20048;-36
2024/04/05 06:48:35;;;;;;;21.63;11.88;;;11.90;99.90;;;;;;12613179;28;20055;-36
2024/04/05 06:54:43;;;;;;;17.63;11.43;;;11.90;99.90;;;;;;12608305;28;20056;-35
2024/04/05 07:00:45;;;;;;;15.50;14.02;;;11.80;99.90;;;;;;12610500;28;20044;-36
2024/04/05 07:06:46;;;;;;;20.83;16.42;;;11.70;99.90;;;;;;12606182;28;20056;-36
2024/04/05 07:12:49;;;;;;;24.63;16.88;;;11.80;99.90;;;;;;12603757;28;20492;-36
2024/04/05 07:18:50;;;;;;;20.48;18.25;;;11.90;99.90;;;;;;12599247;28;20515;-36
2024/04/05 07:24:51;;;;;;;23.67;21.13;;;12.00;99.90;;;;;;12608722;28;20058;-35
2024/04/05 07:30:53;;;;;;;24.60;22.40;;;12.30;99.90;;;;;;12602538;28;21215;-36
2024/04/05 07:36:54;;;;;;;24.02;21.58;;;12.40;99.90;;;;;;12621513;28;20044;-36
2024/04/05 07:42:55;;;;;;;23.50;20.83;;;12.50;99.90;;;;;;12615210;28;20040;-36
2024/04/05 07:48:56;;;;;;;29.92;27.60;;;12.40;99.90;;;;;;12615323;28;20052;-36
2024/04/05 07:54:57;;;;;;;25.25;23.00;;;12.50;99.90;;;;;;12603072;28;20056;-36
2024/04/05 08:00:57;;;;;;;37.95;35.03;;;12.70;99.90;;;;;;12614060;28;20066;-36
2024/04/05 08:06:58;;;;;;;22.77;19.73;;;12.90;99.90;;;;;;12616374;28;20461;-36
2024/04/05 08:12:59;;;;;;;28.83;26.48;;;13.20;99.90;;;;;;12613406;28;20511;-36
2024/04/05 08:19:00;;;;;;;27.17;25.05;;;13.30;99.90;;;;;;12613705;28;20064;-36
2024/04/05 08:25:02;;;;;;;33.63;31.23;;;13.60;99.90;;;;;;12613633;28;20051;-36
2024/04/05 08:31:03;;;;;;;34.70;32.50;;;14.00;99.90;;;;;;12596580;28;20082;-38
2024/04/05 08:37:04;;;;;;;28.70;26.48;;;14.20;99.90;;;;;;12610826;28;20040;-36
2024/04/05 08:43:09;;;;;;;31.45;28.83;;;14.50;99.90;;;;;;12603156;28;20048;-36
2024/04/05 08:49:16;;;;;;;29.83;27.38;;;14.80;99.90;;;;;;12630708;28;20427;-36
2024/04/05 08:55:19;;;;;;;26.90;24.83;;;15.00;99.90;;;;;;12618659;28;20052;-36
2024/04/05 09:01:20;;;;;;;15.37;14.00;;;14.70;99.90;;;;;;12595417;28;20041;-36
2024/04/05 09:07:21;;;;;;;19.90;18.38;;;14.70;99.90;;;;;;12616338;28;20051;-37
2024/04/05 09:13:23;;;;;;;16.85;15.18;;;14.80;99.90;;;;;;12602413;28;20688;-36
2024/04/05 09:19:25;;;;;;;16.80;15.25;;;14.80;99.90;;;;;;12604078;28;20053;-36
2024/04/05 09:25:27;;;;;;;17.90;16.35;;;14.70;99.90;;;;;;12601455;28;20055;-36
2024/04/05 09:31:29;;;;;;;13.52;11.80;;;14.60;99.90;;;;;;12595940;28;20053;-36
2024/04/05 09:37:32;;;;;;;12.68;11.68;;;14.50;99.90;;;;;;12615116;28;20053;-36
2024/04/05 09:43:35;;;;;;;15.07;13.63;;;14.50;99.90;;;;;;12604039;28;20051;-36
2024/04/05 09:49:36;;;;;;;13.17;11.90;;;14.50;99.90;;;;;;12604254;28;20040;-36
2024/04/05 09:55:39;;;;;;;14.27;12.95;;;14.40;99.90;;;;;;12612507;28;20056;-36
2024/04/05 10:01:41;;;;;;;17.00;15.73;;;14.40;99.90;;;;;;12593234;28;20041;-36
2024/04/05 10:07:42;;;;;;;14.70;13.50;;;14.50;99.90;;;;;;12608837;28;20060;-36
2024/04/05 10:13:42;;;;;;;12.25;10.20;;;14.60;99.90;;;;;;12584899;28;20535;-36
2024/04/05 10:19:43;;;;;;;13.20;11.88;;;14.60;99.90;;;;;;12624436;28;20061;-36
2024/04/05 10:25:44;;;;;;;17.98;16.65;;;14.60;99.90;;;;;;12618617;28;20075;-36
2024/04/05 10:31:45;;;;;;;16.02;14.60;;;14.70;99.90;;;;;;12609936;28;20051;-36
2024/04/05 10:37:57;;;;;;;13.77;12.48;;;14.80;99.90;;;;;;12618913;28;20048;-36
2024/04/05 10:44:04;;;;;;;15.18;14.18;;;14.90;99.90;;;;;;12623055;28;20764;-36
2024/04/05 10:50:06;;;;;;;19.42;16.63;;;15.20;99.90;;;;;;12618080;28;20459;-36
2024/04/05 10:56:09;;;;;;;13.48;12.20;;;15.50;99.90;;;;;;12623915;28;20059;-36
2024/04/05 11:02:10;;;;;;;12.23;11.32;;;15.80;99.90;;;;;;12608579;28;20065;-36
2024/04/05 11:08:14;;;;;;;10.32;9.38;;;16.10;99.90;;;;;;12622453;28;20415;-36
2024/04/05 11:14:20;;;;;;;10.73;9.88;;;16.10;99.90;;;;;;12596439;28;20056;-36
2024/04/05 11:20:21;;;;;;;9.75;8.95;;;16.00;99.90;;;;;;12591994;28;20053;-36
2024/04/05 11:26:28;;;;;;;8.57;7.82;;;15.90;99.90;;;;;;12609434;28;20134;-36
2024/04/05 11:32:33;;;;;;;9.68;8.10;;;15.70;99.90;;;;;;12601583;28;20044;-36
2024/04/05 11:38:34;;;;;;;8.13;7.32;;;15.60;99.90;;;;;;12589316;28;20055;-36
2024/04/05 11:44:35;;;;;;;9.35;8.57;;;15.70;99.90;;;;;;12593501;28;20079;-36
2024/04/05 11:50:36;;;;;;;9.48;8.68;;;15.70;99.90;;;;;;12603133;28;20064;-36
2024/04/05 11:56:37;;;;;;;10.00;8.65;;;15.70;99.90;;;;;;12592316;28;20041;-36
2024/04/05 12:02:39;;;;;;;7.80;7.18;;;15.80;99.90;;;;;;12601142;28;20551;-36
2024/04/05 12:08:39;;;;;;;9.27;8.40;;;15.50;99.90;;;;;;12594983;28;20047;-36
2024/04/05 12:14:40;;;;;;;10.70;8.57;;;15.50;99.90;;;;;;12589889;28;20114;-36
2024/04/05 12:20:47;;;;;;;10.65;9.40;;;15.70;99.90;;;;;;12603748;28;20071;-36
2024/04/05 12:26:48;;;;;;;9.98;9.15;;;16.00;99.90;;;;;;12600128;28;20060;-36
2024/04/05 12:32:49;;;;;;;10.55;9.60;;;16.00;99.90;;;;;;12596555;28;20052;-36
2024/04/05 12:38:56;;;;;;;9.52;8.73;;;15.80;99.90;;;;;;12609530;28;20117;-37
2024/04/05 12:44:57;;;;;;;8.70;7.90;;;15.80;99.90;;;;;;12589289;28;20051;-36
2024/04/05 12:51:00;;;;;;;9.93;7.03;;;15.60;99.90;;;;;;12606162;28;20052;-37
2024/04/05 12:57:05;;;;;;;9.30;8.02;;;15.60;99.90;;;;;;12617870;28;20515;-36
2024/04/05 13:03:05;;;;;;;8.80;8.00;;;15.60;99.90;;;;;;12607882;28;20048;-36
2024/04/05 13:09:13;;;;;;;9.20;8.30;;;15.60;99.90;;;;;;12612740;28;20052;-36
2024/04/05 13:15:14;;;;;;;9.55;8.10;;;15.50;99.90;;;;;;12616018;28;20067;-36
2024/04/05 13:21:16;;;;;;;8.35;7.38;;;15.50;99.90;;;;;;12610163;28;20055;-36
2024/04/05 13:27:16;;;;;;;7.97;7.28;;;15.60;99.90;;;;;;12610322;28;20044;-36
2024/04/05 13:33:17;;;;;;;8.30;7.28;;;15.70;99.90;;;;;;12598733;28;20059;-36
2024/04/05 13:39:18;;;;;;;8.10;7.40;;;15.90;99.90;;;;;;12593320;28;20048;-38
2024/04/05 13:45:20;;;;;;;10.48;7.07;;;16.10;99.90;;;;;;12577902;28;20748;-35
2024/04/05 13:51:24;;;;;;;7.50;6.78;;;16.20;99.90;;;;;;12610600;28;20051;-35
2024/04/05 13:57:25;;;;;;;9.90;7.55;;;16.10;99.90;;;;;;12606410;28;20051;-36
2024/04/05 14:03:26;;;;;;;7.32;6.60;;;15.80;99.90;;;;;;12602879;28;20087;-36
2024/04/05 14:09:27;;;;;;;6.68;6.05;;;15.60;99.90;;;;;;12609578;28;20057;-36
2024/04/05 14:15:28;;;;;;;5.78;5.22;;;15.30;99.90;;;;;;12592999;28;20063;-35
2024/04/05 14:21:29;;;;;;;5.97;5.47;;;14.80;99.90;;;;;;12612186;28;20102;-36
2024/04/05 14:27:30;;;;;;;5.28;3.70;;;14.30;99.90;;;;;;12601055;28;20084;-36
2024/04/05 14:33:33;;;;;;;4.95;4.45;;;14.40;99.90;;;;;;12617451;28;20044;-36
2024/04/05 14:39:34;;;;;;;6.28;5.68;;;14.50;99.90;;;;;;12625284;28;20055;-36
2024/04/05 14:45:35;;;;;;;4.47;4.07;;;14.70;99.90;;;;;;12614371;28;20083;-36
2024/04/05 14:51:36;;;;;;;4.35;3.90;;;14.90;99.90;;;;;;12627203;28;20513;-36
2024/04/05 14:57:40;;;;;;;5.20;4.70;;;15.00;99.90;;;;;;12608092;28;20048;-36
2024/04/05 15:03:41;;;;;;;6.07;4.95;;;15.10;99.90;;;;;;12608125;28;20055;-36
2024/04/05 15:09:42;;;;;;;6.13;5.30;;;15.10;99.90;;;;;;12596055;28;20131;-35
2024/04/05 15:15:43;;;;;;;5.55;5.05;;;15.30;99.90;;;;;;12626170;28;20183;-36
2024/04/05 15:21:44;;;;;;;6.07;5.50;;;15.30;99.90;;;;;;12628834;28;20040;-36
2024/04/05 15:27:45;;;;;;;7.75;4.88;;;15.40;99.90;;;;;;12609476;28;20492;-35
2024/04/05 15:33:46;;;;;;;5.53;5.00;;;15.30;99.90;;;;;;12597354;28;20064;-36
2024/04/05 15:39:47;;;;;;;5.63;5.13;;;15.40;99.90;;;;;;12598138;28;20048;-36
2024/04/05 15:45:55;;;;;;;5.22;4.82;;;15.40;99.90;;;;;;12606060;28;20056;-36
2024/04/05 15:51:56;;;;;;;7.63;6.30;;;15.40;99.90;;;;;;12588687;28;20048;-36
2024/04/05 15:57:57;;;;;;;5.63;5.10;;;15.40;99.90;;;;;;12610497;28;20043;-36
2024/04/05 16:03:57;;;;;;;7.70;5.38;;;15.30;99.90;;;;;;12588335;28;20166;-36
2024/04/05 16:09:58;;;;;;;5.57;5.18;;;15.50;99.90;;;;;;12586196;28;20052;-36
2024/04/05 16:16:07;;;;;;;7.60;5.65;;;15.70;99.90;;;;;;12608662;28;20497;-36
2024/04/05 16:22:08;;;;;;;6.95;6.35;;;16.10;99.90;;;;;;12602586;28;20053;-36
2024/04/05 16:28:10;;;;;;;8.30;7.70;;;16.10;99.90;;;;;;12610731;28;20131;-36
2024/04/05 16:34:11;;;;;;;7.70;7.10;;;16.10;1.00;;;;;;12604138;28;20056;-36
2024/04/05 16:40:13;;;;;;;7.30;6.70;;;16.00;1.00;;;;;;12618557;28;20051;-36
2024/04/05 16:46:16;;;;;;;7.47;6.88;;;15.90;1.00;;;;;;12607273;28;20052;-36
2024/04/05 16:52:17;;;;;;;6.97;5.70;;;15.90;1.00;;;;;;12612495;28;20067;-36
2024/04/05 16:58:18;;;;;;;9.13;6.85;;;15.90;99.90;;;;;;12622993;28;20099;-36
2024/04/05 17:04:19;;;;;;;6.78;6.15;;;15.70;99.90;;;;;;12614209;28;20055;-36
2024/04/05 17:10:26;;;;;;;10.55;6.78;;;15.40;99.90;;;;;;12624760;28;20134;-36
2024/04/05 17:16:27;;;;;;;7.38;6.68;;;15.30;99.90;;;;;;12598000;28;20073;-36
2024/04/05 17:22:28;;;;;;;5.60;5.10;;;15.20;99.90;;;;;;12605654;28;20051;-37
2024/04/05 17:28:29;;;;;;;5.93;5.38;;;15.10;99.90;;;;;;12605354;28;20561;-36
2024/04/05 17:34:30;;;;;;;5.55;5.03;;;15.00;99.90;;;;;;12578153;28;20048;-36
2024/04/05 17:40:31;;;;;;;6.18;5.68;;;14.90;99.90;;;;;;12589245;28;20098;-35
2024/04/05 17:46:32;;;;;;;6.28;5.65;;;14.80;99.90;;;;;;12594212;28;20117;-36
2024/04/05 17:52:33;;;;;;;6.80;5.38;;;14.70;99.90;;;;;;12594493;28;20054;-35
2024/04/05 17:58:34;;;;;;;5.47;4.70;;;14.70;99.90;;;;;;12581998;28;20373;-36
2024/04/05 18:04:35;;;;;;;4.75;4.30;;;14.70;99.90;;;;;;12599432;28;20045;-36
2024/04/05 18:10:36;;;;;;;6.22;4.38;;;14.60;99.90;;;;;;12588936;28;20048;-36
2024/04/05 18:16:38;;;;;;;4.80;4.30;;;14.50;99.90;;;;;;12586918;28;20123;-36
2024/04/05 18:22:39;;;;;;;4.90;4.50;;;14.50;99.90;;;;;;12589403;28;20048;-36
2024/04/05 18:28:40;;;;;;;6.43;4.63;;;14.40;99.90;;;;;;12602052;28;20073;-35
2024/04/05 18:34:45;;;;;;;5.45;4.50;;;14.40;99.90;;;;;;12602443;28;20059;-36
2024/04/05 18:40:50;;;;;;;7.30;5.40;;;14.40;99.90;;;;;;12622716;28;20094;-36
2024/04/05 18:46:51;;;;;;;5.47;4.97;;;14.40;99.90;;;;;;12601198;28;20048;-36
2024/04/05 18:53:00;;;;;;;4.78;4.35;;;14.40;99.90;;;;;;12628709;28;20052;-36
2024/04/05 18:59:01;;;;;;;4.95;4.45;;;14.40;99.90;;;;;;12604499;28;20056;-36
2024/04/05 19:05:03;;;;;;;7.10;4.80;;;14.40;99.90;;;;;;12618512;28;20690;-36
2024/04/05 19:11:05;;;;;;;5.90;5.30;;;14.40;99.90;;;;;;12586900;28;20057;-36
2024/04/05 19:17:06;;;;;;;5.50;5.00;;;14.40;99.90;;;;;;12600015;28;20519;-36
2024/04/05 19:23:08;;;;;;;5.45;4.95;;;14.40;99.90;;;;;;12618724;28;20052;-36
2024/04/05 19:29:10;;;;;;;5.05;4.65;;;14.40;99.90;;;;;;12613120;28;20048;-36
2024/04/05 19:35:14;;;;;;;7.05;5.43;;;14.40;99.90;;;;;;12602263;28;20113;-35
2024/04/05 19:41:18;;;;;;;6.70;4.85;;;14.50;99.90;;;;;;12592546;28;20052;-36
2024/04/05 19:47:21;;;;;;;;;;;14.40;99.90;;;;;;12598599;28;20055;-35
2024/04/05 19:53:22;;;;;;;10.43;4.93;;;14.40;99.90;;;;;;12602862;28;19936;-36
2024/04/05 19:59:23;;;;;;;5.55;5.15;;;14.30;99.90;;;;;;12602585;28;20055;-35
2024/04/05 20:05:24;;;;;;;5.68;4.72;;;14.30;99.90;;;;;;12598775;28;20408;-36
2024/04/05 20:11:26;;;;;;;7.90;4.90;;;14.30;99.90;;;;;;12569235;28;20496;-36
2024/04/05 20:17:26;;;;;;;4.63;4.22;;;14.30;99.90;;;;;;12597466;28;20055;-36
2024/04/05 20:23:27;;;;;;;7.60;4.70;;;14.30;99.90;;;;;;12596445;28;20063;-36
2024/04/05 20:35:48;;;;;;;5.60;4.60;;;14.20;99.90;;;;;;12618913;28;20056;-36
2024/04/05 20:41:49;;;;;;;9.10;4.72;;;14.20;99.90;;;;;;12618972;28;20044;-36
2024/04/05 20:47:50;;;;;;;6.60;5.18;;;14.10;99.90;;;;;;12608963;28;20052;-35
2024/04/05 20:53:51;;;;;;;7.65;5.90;;;14.00;99.90;;;;;;12621897;28;20135;-35
2024/04/05 20:59:52;;;;;;;7.82;6.20;;;14.00;99.90;;;;;;12615988;28;20051;-36
2024/04/05 21:05:54;;;;;;;8.23;6.35;;;14.00;99.90;;;;;;12589777;28;20707;-36
2024/04/05 21:11:54;;;;;;;7.43;6.43;;;14.00;99.90;;;;;;12622197;28;20044;-36
2024/04/05 21:17:55;;;;;;;6.30;5.45;;;13.90;99.90;;;;;;12611579;28;20044;-34
2024/04/05 21:23:59;;;;;;;6.93;5.80;;;13.90;99.90;;;;;;12608832;28;20507;-36
2024/04/05 21:30:00;;;;;;;8.45;6.88;;;13.90;99.90;;;;;;12607916;28;20433;-35
2024/04/05 21:36:01;;;;;;;6.45;5.88;;;13.90;99.90;;;;;;12579288;28;20059;-34
2024/04/05 21:42:05;;;;;;;7.80;6.05;;;13.80;99.90;;;;;;12596867;28;20970;-34
2024/04/05 21:48:07;;;;;;;8.77;6.00;;;13.80;99.90;;;;;;12593185;28;20059;-36
2024/04/05 21:54:08;;;;;;;7.53;5.97;;;13.80;99.90;;;;;;12590198;28;20051;-34
2024/04/05 22:00:11;;;;;;;9.32;6.63;;;13.70;99.90;;;;;;12591182;28;20213;-34
2024/04/05 22:06:12;;;;;;;8.53;6.83;;;13.80;99.90;;;;;;12607072;28;20048;-33
2024/04/05 22:12:13;;;;;;;8.30;6.50;;;13.80;99.90;;;;;;12588388;28;20048;-34
2024/04/05 22:18:14;;;;;;;7.45;6.07;;;13.70;99.90;;;;;;12599161;28;20127;-34
2024/04/05 22:24:14;;;;;;;6.90;6.20;;;13.90;99.90;;;;;;12597641;28;20060;-34
2024/04/05 22:30:17;;;;;;;7.63;6.85;;;13.90;99.90;;;;;;12605287;28;20189;-34
2024/04/05 22:36:18;;;;;;;6.97;6.30;;;13.80;99.90;;;;;;12616932;28;20539;-34
2024/04/05 22:42:19;;;;;;;7.43;6.70;;;13.80;99.90;;;;;;12614125;28;20051;-34
2024/04/05 22:48:21;;;;;;;7.75;7.05;;;13.80;99.90;;;;;;12597431;28;20063;-35
2024/04/05 22:54:23;;;;;;;8.38;7.75;;;13.80;99.90;;;;;;12603746;28;20464;-35
2024/04/05 23:00:24;;;;;;;8.23;7.43;;;13.80;99.90;;;;;;12619666;28;20492;-34
2024/04/05 23:06:25;;;;;;;8.52;7.82;;;13.90;99.90;;;;;;12618856;28;20048;-34
2024/04/05 23:12:26;;;;;;;9.77;8.48;;;13.80;99.90;;;;;;12619733;28;20048;-34
2024/04/05 23:18:27;;;;;;;9.40;8.50;;;13.80;99.90;;;;;;12616274;28;20052;-35
2024/04/05 23:24:28;;;;;;;8.75;8.05;;;13.90;99.90;;;;;;12614545;28;20075;-34
2024/04/05 23:30:28;;;;;;;8.48;7.88;;;13.90;99.90;;;;;;12610906;28;20509;-34
2024/04/05 23:36:29;;;;;;;8.68;7.90;;;14.00;99.90;;;;;;12564635;28;20052;-34
2024/04/05 23:42:32;;;;;;;9.70;8.93;;;14.00;99.90;;;;;;12611202;28;20052;-34
2024/04/05 23:48:33;;;;;;;9.77;8.98;;;14.00;99.90;;;;;;12595933;28;20052;-34
2024/04/05 23:54:34;;;;;;;10.07;8.35;;;13.90;99.90;;;;;;12595766;28;20044;-34
